Time;durP1;ratioP1;P1;durP2;ratioP2;P2;SDS_P1;SDS_P2;PMS_P1;PMS_P2;Temp;Humidity;BMP_temperature;BMP_pressure;BME280_temperature;BME280_humidity;BME280_pressure;Samples;Min_cycle;Max_cycle;Signal;HPM_P1;HPM_P2
2021/01/10 00:00:20;;;;;;;10.80;7.93;;;1.60;99.90;;;;;;5002070;28;20233;-75
2021/01/10 00:02:47;;;;;;;9.07;7.70;;;1.40;99.90;;;;;;5002769;28;20188;-75
2021/01/10 00:05:35;;;;;;;10.67;7.63;;;1.40;99.90;;;;;;5030877;28;20213;-74
2021/01/10 00:08:03;;;;;;;11.13;8.63;;;1.40;99.90;;;;;;5019816;28;20287;-74
2021/01/10 00:10:30;;;;;;;10.50;7.93;;;1.30;99.90;;;;;;5011376;28;20689;-75
2021/01/10 00:12:58;;;;;;;13.67;7.30;;;1.30;99.90;;;;;;5022230;28;20197;-76
2021/01/10 00:15:24;;;;;;;9.80;7.57;;;1.20;99.90;;;;;;5005555;28;20241;-76
2021/01/10 00:17:50;;;;;;;8.33;6.87;;;1.20;99.90;;;;;;5006277;28;20203;-75
2021/01/10 00:20:17;;;;;;;11.50;7.93;;;1.30;99.90;;;;;;5021157;28;20238;-75
2021/01/10 00:22:57;;;;;;;12.50;8.30;;;1.40;99.90;;;;;;5004275;28;20281;-75
2021/01/10 00:25:24;;;;;;;13.03;8.83;;;1.10;99.90;;;;;;5008894;28;20611;-75
2021/01/10 00:27:51;;;;;;;14.40;9.00;;;1.00;99.90;;;;;;4997985;28;20280;-74
2021/01/10 00:30:20;;;;;;;12.57;8.47;;;1.20;99.90;;;;;;4999358;28;20360;-74
2021/01/10 00:32:50;;;;;;;12.70;8.50;;;1.40;99.90;;;;;;5009351;28;20212;-74
2021/01/10 00:35:18;;;;;;;12.67;8.10;;;1.40;99.90;;;;;;5005815;28;20295;-75
2021/01/10 00:37:47;;;;;;;10.73;7.47;;;1.30;99.90;;;;;;4997742;28;20535;-75
2021/01/10 00:40:14;;;;;;;15.47;8.27;;;1.30;99.90;;;;;;5011950;28;20715;-74
2021/01/10 00:42:44;;;;;;;21.80;9.73;;;1.30;99.90;;;;;;5017362;28;20212;-75
2021/01/10 00:45:12;;;;;;;15.77;8.53;;;1.50;99.90;;;;;;4993065;28;20272;-75
2021/01/10 00:47:39;;;;;;;13.20;8.13;;;1.50;99.90;;;;;;5026014;28;20222;-75
2021/01/10 00:50:07;;;;;;;12.57;8.33;;;1.30;99.90;;;;;;5008977;28;20216;-75
2021/01/10 00:52:34;;;;;;;19.60;8.63;;;1.40;99.90;;;;;;5029013;28;20226;-75
2021/01/10 00:55:02;;;;;;;17.17;8.03;;;1.50;99.90;;;;;;5017053;28;20205;-75
2021/01/10 00:57:28;;;;;;;18.03;8.47;;;1.40;99.90;;;;;;5016084;28;20273;-74
2021/01/10 00:59:55;;;;;;;9.37;7.83;;;1.70;99.90;;;;;;5016858;28;20251;-74
2021/01/10 01:02:21;;;;;;;13.23;9.63;;;2.00;99.90;;;;;;5014669;28;20564;-75
2021/01/10 01:04:47;;;;;;;14.30;8.10;;;2.30;99.90;;;;;;4994664;28;20225;-75
2021/01/10 01:07:14;;;;;;;14.30;8.60;;;2.40;99.90;;;;;;5001992;28;20201;-75
2021/01/10 01:09:41;;;;;;;10.67;8.27;;;2.60;85.00;;;;;;5004049;28;20198;-75
2021/01/10 01:12:21;;;;;;;15.07;8.60;;;2.70;41.00;;;;;;5017307;28;20660;-74
2021/01/10 01:14:48;;;;;;;13.90;8.27;;;2.70;1.00;;;;;;4998333;28;20217;-74
2021/01/10 01:17:15;;;;;;;11.20;8.13;;;2.70;1.00;;;;;;5036120;28;20237;-76
2021/01/10 01:19:41;;;;;;;13.67;8.27;;;2.50;1.00;;;;;;5003631;28;20260;-74
2021/01/10 01:22:08;;;;;;;11.67;8.13;;;2.50;1.00;;;;;;5018121;28;20275;-75
2021/01/10 01:24:34;;;;;;;12.87;8.17;;;2.70;1.00;;;;;;5035010;28;20208;-74
2021/01/10 01:27:02;;;;;;;8.97;7.23;;;2.80;1.00;;;;;;5006951;28;20300;-74
2021/01/10 01:29:28;;;;;;;10.27;7.67;;;2.60;1.00;;;;;;5035445;28;20211;-75
2021/01/10 01:31:55;;;;;;;11.10;6.87;;;2.50;1.00;;;;;;5008108;28;20209;-75
2021/01/10 01:34:21;;;;;;;10.60;6.83;;;2.40;1.00;;;;;;5017237;28;20202;-75
2021/01/10 01:36:47;;;;;;;14.47;6.53;;;2.40;1.00;;;;;;5015667;28;20292;-76
2021/01/10 01:39:14;;;;;;;13.10;6.90;;;2.30;16.30;;;;;;5031964;28;20243;-75
2021/01/10 01:41:40;;;;;;;9.77;7.23;;;2.40;50.00;;;;;;5023435;28;20315;-75
2021/01/10 01:44:07;;;;;;;11.23;6.57;;;2.50;56.30;;;;;;5035961;28;20204;-75
2021/01/10 01:46:37;;;;;;;10.03;7.17;;;2.80;60.60;;;;;;5022538;28;20291;-75
2021/01/10 01:49:09;;;;;;;11.87;6.73;;;2.70;1.00;;;;;;5018530;28;20194;-75
2021/01/10 01:51:36;;;;;;;11.23;6.73;;;2.50;1.00;;;;;;5018292;28;20221;-75
2021/01/10 01:54:07;;;;;;;13.63;6.37;;;2.30;12.70;;;;;;5005277;28;20251;-76
2021/01/10 01:56:34;;;;;;;11.13;7.77;;;2.20;46.60;;;;;;5018577;28;20201;-75
2021/01/10 01:59:04;;;;;;;12.10;7.40;;;2.20;99.60;;;;;;5019101;28;20288;-75
2021/01/10 02:01:32;;;;;;;10.20;6.37;;;2.40;99.90;;;;;;5026469;28;20794;-75
2021/01/10 02:04:20;;;;;;;11.70;7.07;;;2.60;76.00;;;;;;5009764;28;20193;-75
2021/01/10 02:07:10;;;;;;;14.40;7.13;;;2.70;88.60;;;;;;5020984;28;20529;-75
2021/01/10 02:09:41;;;;;;;8.67;6.40;;;2.80;48.20;;;;;;5020017;28;20222;-75
2021/01/10 02:12:10;;;;;;;9.53;6.77;;;2.70;22.70;;;;;;5016329;28;20528;-75
2021/01/10 02:14:53;;;;;;;13.10;6.57;;;2.70;4.70;;;;;;5002124;28;20224;-75
2021/01/10 02:17:20;;;;;;;12.67;7.10;;;2.80;1.00;;;;;;5038162;28;20377;-75
2021/01/10 02:20:27;;;;;;;9.43;6.80;;;2.50;1.00;;;;;;5027244;28;20231;-74
2021/01/10 02:23:22;;;;;;;10.77;7.00;;;2.70;27.10;;;;;;5035632;28;20243;-75
2021/01/10 02:25:49;;;;;;;17.93;6.63;;;2.90;1.00;;;;;;5016051;28;20291;-75
2021/01/10 02:28:21;;;;;;;9.97;6.50;;;2.60;1.00;;;;;;5031694;28;20203;-75
2021/01/10 02:30:48;;;;;;;12.57;6.90;;;2.40;18.60;;;;;;5021782;28;20292;-75
2021/01/10 02:33:42;;;;;;;10.70;7.27;;;2.40;84.20;;;;;;5043268;28;20538;-75
2021/01/10 02:36:19;;;;;;;9.87;7.17;;;2.30;99.90;;;;;;5038653;28;20201;-75
2021/01/10 02:38:57;;;;;;;12.07;7.43;;;2.40;99.90;;;;;;5041993;28;20242;-75
2021/01/10 02:41:38;;;;;;;13.43;7.67;;;2.30;99.90;;;;;;5020505;28;20273;-76
2021/01/10 02:44:22;;;;;;;12.33;7.27;;;2.20;99.90;;;;;;5024815;28;20601;-76
2021/01/10 02:46:53;;;;;;;12.60;6.60;;;2.10;99.90;;;;;;5061553;28;20192;-75
2021/01/10 02:49:21;;;;;;;17.70;7.90;;;2.10;99.90;;;;;;5026358;28;20785;-75
2021/01/10 02:51:49;;;;;;;10.67;7.43;;;2.30;99.90;;;;;;5025691;28;20283;-75
2021/01/10 02:54:17;;;;;;;11.00;7.27;;;2.50;99.90;;;;;;5021493;28;20242;-75
2021/01/10 02:56:57;;;;;;;8.73;6.77;;;2.50;99.90;;;;;;5040037;28;20203;-75
2021/01/10 02:59:26;;;;;;;13.07;7.40;;;2.60;99.90;;;;;;5039224;28;20208;-75
2021/01/10 03:01:57;;;;;;;13.20;7.77;;;2.70;99.90;;;;;;5038516;28;20358;-75
2021/01/10 03:04:24;;;;;;;13.67;6.77;;;2.80;99.90;;;;;;5020502;28;20277;-75
2021/01/10 03:06:54;;;;;;;14.00;7.17;;;2.70;46.80;;;;;;5029253;28;20311;-74
2021/01/10 03:09:21;;;;;;;14.20;8.33;;;2.30;54.00;;;;;;5027766;28;20211;-75
2021/01/10 03:11:48;;;;;;;14.83;7.63;;;2.10;99.90;;;;;;5026175;28;20196;-74
2021/01/10 03:14:15;;;;;;;13.53;8.10;;;2.30;99.90;;;;;;5041637;28;20216;-75
2021/01/10 03:16:43;;;;;;;10.13;7.50;;;2.60;99.90;;;;;;5031869;28;20593;-74
2021/01/10 03:19:10;;;;;;;12.17;7.50;;;2.60;99.90;;;;;;5006147;28;20558;-73
2021/01/10 03:21:37;;;;;;;9.93;7.17;;;2.20;66.30;;;;;;5038172;28;20208;-75
2021/01/10 03:24:03;;;;;;;10.50;7.57;;;2.20;99.90;;;;;;5004899;28;20272;-75
2021/01/10 03:26:30;;;;;;;12.67;8.17;;;2.40;99.90;;;;;;5023297;28;20203;-75
2021/01/10 03:28:56;;;;;;;10.77;7.23;;;2.40;82.30;;;;;;5004305;28;20213;-75
2021/01/10 03:31:23;;;;;;;12.53;6.87;;;2.40;93.80;;;;;;4991022;28;20218;-76
2021/01/10 03:33:49;;;;;;;9.73;7.37;;;2.40;57.60;;;;;;5008831;28;20198;-75
2021/01/10 03:36:16;;;;;;;14.57;7.90;;;2.40;66.90;;;;;;4987114;28;20211;-75
2021/01/10 03:38:43;;;;;;;10.70;6.90;;;2.50;93.80;;;;;;5014379;28;20197;-75
2021/01/10 03:41:10;;;;;;;11.57;7.90;;;2.50;72.80;;;;;;5023067;28;20781;-75
2021/01/10 03:43:38;;;;;;;11.43;6.73;;;2.60;33.20;;;;;;5017971;28;20657;-75
2021/01/10 03:46:04;;;;;;;9.23;6.77;;;2.60;10.60;;;;;;5011589;28;20201;-74
2021/01/10 03:48:37;;;;;;;11.10;7.50;;;2.40;9.50;;;;;;5000257;28;20284;-75
2021/01/10 03:51:04;;;;;;;11.57;7.37;;;2.10;15.50;;;;;;5009180;28;20414;-75
2021/01/10 03:53:33;;;;;;;10.30;7.13;;;2.20;83.70;;;;;;5017843;28;20207;-75
2021/01/10 03:56:02;;;;;;;12.67;7.30;;;2.30;90.00;;;;;;4996968;28;20205;-74
2021/01/10 03:58:29;;;;;;;13.07;7.23;;;2.40;59.30;;;;;;5002076;28;20208;-75
2021/01/10 04:00:55;;;;;;;12.73;7.50;;;2.20;70.90;;;;;;5017500;28;20216;-74
2021/01/10 04:03:22;;;;;;;8.83;7.00;;;2.20;99.90;;;;;;4999779;28;20198;-75
2021/01/10 04:05:48;;;;;;;12.80;6.90;;;2.60;99.90;;;;;;5008758;28;20208;-74
2021/01/10 04:08:15;;;;;;;7.97;6.40;;;2.90;90.80;;;;;;5015580;28;20232;-75
2021/01/10 04:10:41;;;;;;;13.37;6.97;;;3.00;1.00;;;;;;5016332;28;20264;-75
2021/01/10 04:13:08;;;;;;;9.53;6.53;;;2.90;1.00;;;;;;5010072;28;20296;-74
2021/01/10 04:15:34;;;;;;;7.43;6.33;;;2.90;1.00;;;;;;5039072;28;20612;-75
2021/01/10 04:18:01;;;;;;;10.43;7.13;;;3.00;1.00;;;;;;5021402;28;20227;-75
2021/01/10 04:20:28;;;;;;;11.30;7.20;;;2.90;1.00;;;;;;5023800;28;20296;-75
2021/01/10 04:22:54;;;;;;;7.10;6.23;;;2.70;1.00;;;;;;5023390;28;20208;-75
2021/01/10 04:25:20;;;;;;;9.60;6.20;;;2.80;1.00;;;;;;5012226;28;20233;-75
2021/01/10 04:27:47;;;;;;;12.60;6.70;;;2.60;1.00;;;;;;5003867;28;20872;-75
2021/01/10 04:30:13;;;;;;;10.37;7.23;;;2.80;1.00;;;;;;5040032;28;20192;-76
2021/01/10 04:32:40;;;;;;;9.40;7.07;;;3.00;1.00;;;;;;5021348;28;20237;-76
2021/01/10 04:35:06;;;;;;;11.27;6.83;;;3.00;1.00;;;;;;5016326;28;20215;-75
2021/01/10 04:37:33;;;;;;;11.97;6.57;;;3.00;1.00;;;;;;5019606;28;20200;-75
2021/01/10 04:40:01;;;;;;;10.23;7.17;;;2.90;1.00;;;;;;5024189;28;20278;-75
2021/01/10 04:42:28;;;;;;;9.93;7.53;;;3.00;1.00;;;;;;5031918;28;20345;-75
2021/01/10 04:44:56;;;;;;;14.87;6.70;;;3.10;1.00;;;;;;5026314;28;20237;-75
2021/01/10 04:47:22;;;;;;;11.90;7.10;;;3.00;1.00;;;;;;5016525;28;20200;-75
2021/01/10 04:49:49;;;;;;;11.27;7.10;;;2.90;1.00;;;;;;5033862;28;20215;-75
2021/01/10 04:52:19;;;;;;;9.20;7.37;;;2.90;1.00;;;;;;5025407;28;20337;-75
2021/01/10 04:54:46;;;;;;;11.40;8.07;;;2.90;1.00;;;;;;5024649;28;20204;-75
2021/01/10 04:57:13;;;;;;;12.57;7.03;;;3.00;1.00;;;;;;5027790;28;20278;-75
2021/01/10 04:59:41;;;;;;;10.40;6.60;;;3.00;1.00;;;;;;5049481;28;20201;-75
2021/01/10 05:02:10;;;;;;;9.53;6.67;;;3.10;1.00;;;;;;5034572;28;20212;-74
2021/01/10 05:04:38;;;;;;;12.50;7.23;;;3.10;1.00;;;;;;5018445;28;20196;-75
2021/01/10 05:07:05;;;;;;;10.93;7.40;;;3.10;99.90;;;;;;5017503;28;20236;-75
2021/01/10 05:09:32;;;;;;;9.17;6.37;;;2.90;99.90;;;;;;5030569;28;20193;-76
2021/01/10 05:11:58;;;;;;;11.13;7.13;;;2.90;1.00;;;;;;5024752;28;20273;-75
2021/01/10 05:14:25;;;;;;;15.47;7.30;;;2.90;1.00;;;;;;5026011;28;20207;-75
2021/01/10 05:16:59;;;;;;;9.37;7.13;;;2.70;1.00;;;;;;5034812;28;20228;-74
2021/01/10 05:19:29;;;;;;;10.00;7.00;;;2.50;1.00;;;;;;5042017;28;20203;-75
2021/01/10 05:22:05;;;;;;;9.57;7.10;;;2.50;1.00;;;;;;5020121;28;20711;-75
2021/01/10 05:24:32;;;;;;;11.13;7.17;;;2.40;1.00;;;;;;5027245;28;20413;-75
2021/01/10 05:26:59;;;;;;;9.63;6.73;;;2.40;1.00;;;;;;5016547;28;20197;-76
2021/01/10 05:29:27;;;;;;;12.10;6.90;;;2.30;1.00;;;;;;5021385;28;20212;-75
2021/01/10 05:31:53;;;;;;;7.67;6.70;;;2.20;1.00;;;;;;5017981;28;20559;-74
2021/01/10 05:34:22;;;;;;;12.17;7.83;;;2.40;1.00;;;;;;5036360;28;20212;-75
2021/01/10 05:36:49;;;;;;;8.63;7.47;;;2.40;1.00;;;;;;5021748;28;20703;-75
2021/01/10 05:39:18;;;;;;;8.57;6.50;;;2.30;1.00;;;;;;5027265;28;20232;-75
2021/01/10 05:41:53;;;;;;;10.17;7.60;;;1.90;1.00;;;;;;5028625;28;20229;-76
2021/01/10 05:44:22;;;;;;;10.90;7.30;;;1.80;99.90;;;;;;5044124;28;20258;-74
2021/01/10 05:46:49;;;;;;;9.80;6.70;;;1.70;99.90;;;;;;5042596;28;20207;-77
2021/01/10 05:49:17;;;;;;;11.50;7.43;;;1.60;99.90;;;;;;5035271;28;20264;-75
2021/01/10 05:51:45;;;;;;;10.87;7.00;;;1.50;99.90;;;;;;5025762;28;20558;-77
2021/01/10 05:54:41;;;;;;;10.17;7.70;;;1.50;99.90;;;;;;5030635;28;20270;-75
2021/01/10 05:57:09;;;;;;;10.03;6.87;;;1.60;99.90;;;;;;5041488;28;20277;-75
2021/01/10 05:59:38;;;;;;;11.30;7.77;;;1.70;99.90;;;;;;5037251;28;20265;-75
2021/01/10 06:02:06;;;;;;;11.83;8.17;;;2.10;99.90;;;;;;5029534;28;20698;-74
2021/01/10 06:04:33;;;;;;;10.83;8.10;;;2.30;99.90;;;;;;5011091;28;20594;-74
2021/01/10 06:06:59;;;;;;;13.20;8.27;;;2.10;99.90;;;;;;5037197;28;20305;-75
2021/01/10 06:09:26;;;;;;;13.13;7.83;;;2.10;99.90;;;;;;5032774;28;20261;-75
2021/01/10 06:11:53;;;;;;;12.37;7.17;;;1.70;93.30;;;;;;5023025;28;20209;-75
2021/01/10 06:14:22;;;;;;;12.67;9.03;;;1.70;99.90;;;;;;5040475;28;20208;-75
2021/01/10 06:16:57;;;;;;;10.83;7.80;;;1.80;99.90;;;;;;5023306;28;20268;-75
2021/01/10 06:19:28;;;;;;;10.37;7.27;;;1.90;99.90;;;;;;5026885;28;20223;-75
2021/01/10 06:22:02;;;;;;;13.20;8.20;;;1.80;99.90;;;;;;5032359;28;20235;-74
2021/01/10 06:24:35;;;;;;;13.53;8.17;;;1.80;99.90;;;;;;5021259;28;20204;-75
2021/01/10 06:27:05;;;;;;;15.80;8.07;;;2.00;99.90;;;;;;5034081;28;20204;-75
2021/01/10 06:29:41;;;;;;;10.90;7.37;;;1.90;99.90;;;;;;5035760;28;20197;-76
2021/01/10 06:32:12;;;;;;;10.53;7.63;;;1.90;99.90;;;;;;5028931;28;20272;-76
2021/01/10 06:34:40;;;;;;;11.13;7.90;;;2.20;99.90;;;;;;5019954;28;20204;-75
2021/01/10 06:37:08;;;;;;;13.47;8.30;;;2.20;99.90;;;;;;5036122;28;20205;-77
2021/01/10 06:39:45;;;;;;;13.77;7.57;;;2.10;99.90;;;;;;5044157;28;20208;-75
2021/01/10 06:42:12;;;;;;;11.53;8.23;;;2.10;99.90;;;;;;5043174;28;20300;-75
2021/01/10 06:44:48;;;;;;;10.03;7.77;;;2.20;99.90;;;;;;5025860;28;20197;-75
2021/01/10 06:47:23;;;;;;;11.20;7.87;;;2.10;99.90;;;;;;5021942;28;20314;-75
2021/01/10 06:49:52;;;;;;;10.37;7.40;;;2.30;99.90;;;;;;5022350;28;20274;-75
2021/01/10 06:52:22;;;;;;;11.07;7.43;;;2.40;99.90;;;;;;5028559;28;20215;-75
2021/01/10 06:54:50;;;;;;;11.17;8.33;;;2.50;99.90;;;;;;5021222;28;20328;-75
2021/01/10 06:57:17;;;;;;;13.10;7.47;;;2.60;99.90;;;;;;5029102;28;20282;-76
2021/01/10 07:00:04;;;;;;;13.97;8.07;;;2.50;32.80;;;;;;5034140;28;20291;-75
2021/01/10 07:02:30;;;;;;;10.80;7.20;;;2.40;20.50;;;;;;5018086;28;20248;-75
2021/01/10 07:04:57;;;;;;;15.03;7.90;;;2.30;85.60;;;;;;5011837;28;20200;-75
2021/01/10 07:07:41;;;;;;;11.83;6.77;;;2.50;99.90;;;;;;5045412;28;20265;-75
2021/01/10 07:10:10;;;;;;;9.80;8.00;;;2.40;99.90;;;;;;5040011;28;20201;-74
2021/01/10 07:12:38;;;;;;;9.10;7.83;;;2.70;99.90;;;;;;5042388;28;20207;-74
2021/01/10 07:15:34;;;;;;;11.63;7.50;;;2.90;99.90;;;;;;5028135;28;20224;-75
2021/01/10 07:18:05;;;;;;;11.87;8.13;;;3.00;39.90;;;;;;5009603;28;20290;-75
2021/01/10 07:20:34;;;;;;;8.73;6.80;;;3.20;1.00;;;;;;5021236;28;20210;-75
2021/01/10 07:23:27;;;;;;;8.97;7.47;;;3.00;1.00;;;;;;5014037;28;20216;-75
2021/01/10 07:25:53;;;;;;;9.60;7.70;;;2.90;1.00;;;;;;5036987;28;20271;-74
2021/01/10 07:28:33;;;;;;;9.80;7.37;;;3.00;1.00;;;;;;5005369;28;20762;-75
2021/01/10 07:31:11;;;;;;;11.37;7.57;;;2.90;1.00;;;;;;5003925;28;20651;-75
2021/01/10 07:33:38;;;;;;;9.40;6.77;;;2.90;1.00;;;;;;5001217;28;20621;-75
2021/01/10 07:36:05;;;;;;;12.53;7.03;;;2.90;1.00;;;;;;5013347;28;20268;-75
2021/01/10 07:38:33;;;;;;;10.03;6.57;;;2.70;1.00;;;;;;5013019;28;20263;-74
2021/01/10 07:41:27;;;;;;;10.00;7.27;;;2.70;1.00;;;;;;5016113;28;20705;-75
2021/01/10 07:43:56;;;;;;;9.60;7.20;;;2.60;20.00;;;;;;5039600;28;20644;-74
2021/01/10 07:47:00;;;;;;;10.67;7.47;;;2.70;97.80;;;;;;5002798;28;20224;-75
2021/01/10 07:49:29;;;;;;;7.63;6.40;;;2.70;84.20;;;;;;5008897;28;21029;-75
2021/01/10 07:51:56;;;;;;;9.97;6.33;;;2.70;98.70;;;;;;5009494;28;20264;-75
2021/01/10 07:54:50;;;;;;;9.87;6.83;;;2.80;99.90;;;;;;5004273;28;20278;-75
2021/01/10 07:57:33;;;;;;;9.93;6.50;;;2.80;61.70;;;;;;5015010;28;20665;-76
2021/01/10 08:00:17;;;;;;;8.33;6.47;;;2.80;57.50;;;;;;4998636;28;20197;-75
2021/01/10 08:02:56;;;;;;;12.50;6.73;;;2.60;89.40;;;;;;5002024;28;20284;-75
2021/01/10 08:05:37;;;;;;;11.83;6.70;;;2.50;99.90;;;;;;5015148;28;20201;-75
2021/01/10 08:08:12;;;;;;;8.13;6.63;;;2.60;99.90;;;;;;5024371;28;20204;-75
2021/01/10 08:10:47;;;;;;;10.00;6.93;;;2.80;99.90;;;;;;5022412;28;20193;-76
2021/01/10 08:13:40;;;;;;;12.43;6.50;;;2.80;99.90;;;;;;4999122;28;20192;-76
2021/01/10 08:16:28;;;;;;;10.30;7.50;;;2.90;99.90;;;;;;5009865;28;20266;-75
2021/01/10 08:19:00;;;;;;;11.03;7.07;;;3.00;99.40;;;;;;5022253;28;20204;-75
2021/01/10 08:21:27;;;;;;;8.83;6.50;;;2.90;94.10;;;;;;5022625;28;20252;-76
2021/01/10 08:23:54;;;;;;;7.60;6.40;;;3.00;96.10;;;;;;5016309;28;20638;-75
2021/01/10 08:26:21;;;;;;;10.80;6.40;;;3.20;74.80;;;;;;5008598;28;20667;-75
2021/01/10 08:29:02;;;;;;;11.80;7.53;;;2.90;1.00;;;;;;5007814;28;20304;-75
2021/01/10 08:31:29;;;;;;;11.00;7.30;;;2.70;80.30;;;;;;5002169;28;20294;-75
2021/01/10 08:34:04;;;;;;;11.03;7.10;;;2.70;99.90;;;;;;5004896;28;20209;-75
2021/01/10 08:36:31;;;;;;;11.63;6.57;;;2.90;99.90;;;;;;5020663;28;20288;-75
2021/01/10 08:39:01;;;;;;;13.33;7.90;;;2.80;99.90;;;;;;4996056;28;20572;-76
2021/01/10 08:41:27;;;;;;;11.47;7.20;;;2.80;99.90;;;;;;5006912;28;20208;-75
2021/01/10 08:44:08;;;;;;;11.87;6.67;;;2.90;99.90;;;;;;5020743;28;20216;-76
2021/01/10 08:46:38;;;;;;;10.20;7.00;;;2.80;99.90;;;;;;5010487;28;20282;-77
2021/01/10 08:49:05;;;;;;;11.57;7.97;;;2.70;99.90;;;;;;5019377;28;20599;-76
2021/01/10 08:51:41;;;;;;;13.57;7.77;;;2.70;99.90;;;;;;5007085;28;20233;-75
2021/01/10 08:54:17;;;;;;;10.13;7.43;;;3.00;99.90;;;;;;5002895;28;20211;-75
2021/01/10 08:56:49;;;;;;;9.07;7.30;;;3.10;99.90;;;;;;5023969;28;20208;-78
2021/01/10 08:59:18;;;;;;;10.87;6.67;;;3.00;96.80;;;;;;5008560;28;21200;-76
2021/01/10 09:01:49;;;;;;;10.67;7.13;;;2.80;99.90;;;;;;5011276;28;20219;-76
2021/01/10 09:04:17;;;;;;;9.67;6.97;;;3.00;99.90;;;;;;5007119;28;20216;-76
2021/01/10 09:06:49;;;;;;;11.80;6.80;;;3.10;99.90;;;;;;5021523;28;20345;-78
2021/01/10 09:09:31;;;;;;;12.47;7.03;;;3.10;99.90;;;;;;5021177;28;20267;-77
2021/01/10 09:12:13;;;;;;;11.93;7.33;;;2.90;99.90;;;;;;5017455;28;20209;-76
2021/01/10 09:14:49;;;;;;;8.70;6.63;;;3.00;99.90;;;;;;5027412;28;20706;-75
2021/01/10 09:17:21;;;;;;;10.37;7.00;;;3.10;99.90;;;;;;5036139;28;20240;-75
2021/01/10 09:19:54;;;;;;;10.90;6.47;;;3.40;99.90;;;;;;5041098;28;20228;-77
2021/01/10 09:22:27;;;;;;;10.40;7.40;;;3.40;96.20;;;;;;5034449;28;20313;-76
2021/01/10 09:24:53;;;;;;;10.87;6.83;;;3.60;17.80;;;;;;5039801;28;20582;-78
2021/01/10 09:27:20;;;;;;;11.20;7.70;;;3.50;22.80;;;;;;5027080;28;20251;-77
2021/01/10 09:29:46;;;;;;;7.87;6.43;;;3.40;1.00;;;;;;5024198;28;20227;-77
2021/01/10 09:32:23;;;;;;;9.33;6.97;;;3.30;1.00;;;;;;5024596;28;20234;-76
2021/01/10 09:34:56;;;;;;;10.60;6.33;;;3.30;64.00;;;;;;5030447;28;20215;-76
2021/01/10 09:37:30;;;;;;;7.13;5.80;;;3.30;30.40;;;;;;5050945;28;20213;-75
2021/01/10 09:40:09;;;;;;;6.23;5.37;;;3.70;65.70;;;;;;5042406;28;20742;-72
2021/01/10 09:42:49;;;;;;;7.63;5.83;;;3.70;1.00;;;;;;5023875;28;20236;-74
2021/01/10 09:45:16;;;;;;;8.47;6.07;;;3.70;1.00;;;;;;5034437;28;20210;-76
2021/01/10 09:47:49;;;;;;;10.13;6.80;;;3.80;1.00;;;;;;5018881;28;20224;-76
2021/01/10 09:50:16;;;;;;;8.80;5.90;;;3.90;1.00;;;;;;5013568;28;20200;-80
2021/01/10 09:52:51;;;;;;;8.53;6.80;;;3.70;1.00;;;;;;5020924;28;20628;-80
2021/01/10 09:55:19;;;;;;;10.07;6.57;;;3.70;1.00;;;;;;5030178;28;20199;-80
2021/01/10 09:57:46;;;;;;;8.03;5.77;;;3.60;1.00;;;;;;5030702;28;20279;-79
2021/01/10 10:00:15;;;;;;;11.93;6.73;;;3.60;1.00;;;;;;5035576;28;20633;-79
2021/01/10 10:02:44;;;;;;;7.77;5.90;;;3.50;1.00;;;;;;5046153;28;20228;-78
2021/01/10 10:05:25;;;;;;;7.87;6.53;;;3.60;1.00;;;;;;5028609;28;20190;-75
2021/01/10 10:08:02;;;;;;;10.53;7.10;;;3.70;1.00;;;;;;5023412;28;20197;-75
2021/01/10 10:10:31;;;;;;;12.23;6.50;;;4.00;1.00;;;;;;5013670;28;20294;-75
2021/01/10 10:13:01;;;;;;;11.13;7.37;;;4.10;1.00;;;;;;5042287;28;20216;-73
2021/01/10 10:15:45;;;;;;;10.17;6.97;;;4.20;1.00;;;;;;5037734;28;20678;-72
2021/01/10 10:18:21;;;;;;;9.47;7.23;;;4.40;1.00;;;;;;5034351;28;20230;-73
2021/01/10 10:20:48;;;;;;;9.23;6.87;;;4.20;1.00;;;;;;5037100;28;20377;-72
2021/01/10 10:23:15;;;;;;;7.43;6.27;;;3.90;1.00;;;;;;5023266;28;20261;-73
2021/01/10 10:25:43;;;;;;;12.47;6.77;;;3.90;1.00;;;;;;5035801;28;20208;-73
2021/01/10 10:28:10;;;;;;;11.40;6.23;;;3.90;1.00;;;;;;5033812;28;20308;-74
2021/01/10 10:30:37;;;;;;;10.57;7.13;;;3.90;1.00;;;;;;5029751;28;20268;-73
2021/01/10 10:33:05;;;;;;;9.73;7.00;;;3.90;1.00;;;;;;5041326;28;20200;-73
2021/01/10 10:35:32;;;;;;;9.90;6.73;;;3.70;1.00;;;;;;5025850;28;20615;-74
2021/01/10 10:37:58;;;;;;;9.43;7.63;;;3.80;1.00;;;;;;5023340;28;20288;-74
2021/01/10 10:40:25;;;;;;;10.50;8.00;;;4.00;1.00;;;;;;5040345;28;20624;-73
2021/01/10 10:42:52;;;;;;;13.27;7.57;;;4.10;1.00;;;;;;5036709;28;20311;-73
2021/01/10 10:45:18;;;;;;;8.63;6.90;;;4.00;1.00;;;;;;5021406;28;20200;-74
2021/01/10 10:47:44;;;;;;;12.27;7.37;;;3.80;1.00;;;;;;5027117;28;20287;-74
2021/01/10 10:50:11;;;;;;;9.07;6.90;;;4.10;1.00;;;;;;5022180;28;20204;-74
2021/01/10 10:52:38;;;;;;;10.93;7.80;;;4.20;1.00;;;;;;5035740;28;20657;-75
2021/01/10 10:55:05;;;;;;;13.37;7.70;;;4.20;1.00;;;;;;5028080;28;20236;-73
2021/01/10 10:57:31;;;;;;;9.30;7.13;;;4.30;1.00;;;;;;5031880;28;20386;-74
2021/01/10 10:59:58;;;;;;;11.23;6.53;;;4.40;1.00;;;;;;5041309;28;21207;-74
2021/01/10 11:02:25;;;;;;;9.80;7.13;;;4.60;1.00;;;;;;5010321;28;20267;-75
2021/01/10 11:04:51;;;;;;;13.57;7.90;;;4.40;1.00;;;;;;5041718;28;20208;-74
2021/01/10 11:07:18;;;;;;;13.60;7.47;;;4.50;1.00;;;;;;5008333;28;20769;-74
2021/01/10 11:09:47;;;;;;;10.73;7.30;;;4.70;1.00;;;;;;5038598;28;20601;-74
2021/01/10 11:12:14;;;;;;;11.30;7.63;;;4.80;1.00;;;;;;5040065;28;20345;-74
2021/01/10 11:14:41;;;;;;;10.17;7.40;;;4.70;1.00;;;;;;5036130;28;20299;-75
2021/01/10 11:17:09;;;;;;;12.93;8.20;;;5.00;1.00;;;;;;5041734;28;21160;-74
2021/01/10 11:19:36;;;;;;;10.07;8.17;;;5.30;1.00;;;;;;5035598;28;20467;-74
2021/01/10 11:22:04;;;;;;;10.57;7.37;;;5.40;8.90;;;;;;5029693;28;20568;-74
2021/01/10 11:24:32;;;;;;;10.03;8.53;;;5.20;1.00;;;;;;5046228;28;20212;-74
2021/01/10 11:26:59;;;;;;;13.60;9.83;;;5.30;1.00;;;;;;5023531;28;20320;-74
2021/01/10 11:29:26;;;;;;;19.23;8.33;;;4.90;99.90;;;;;;5015130;28;20209;-73
2021/01/10 11:31:53;;;;;;;11.37;8.10;;;5.20;1.00;;;;;;5032792;28;20204;-73
2021/01/10 11:34:20;;;;;;;10.20;8.70;;;5.50;1.00;;;;;;5034844;28;20210;-74
2021/01/10 11:36:49;;;;;;;12.83;8.83;;;5.80;1.00;;;;;;5040971;28;20845;-73
2021/01/10 11:39:18;;;;;;;13.33;9.40;;;5.90;1.00;;;;;;5035535;28;20214;-74
2021/01/10 11:41:49;;;;;;;12.43;8.23;;;6.30;1.00;;;;;;5039049;28;20227;-74
2021/01/10 11:44:17;;;;;;;13.40;8.17;;;6.50;1.00;;;;;;5034991;28;20256;-74
2021/01/10 11:46:47;;;;;;;11.37;7.53;;;6.20;99.90;;;;;;5034876;28;20288;-75
2021/01/10 11:49:15;;;;;;;10.13;7.73;;;6.50;99.90;;;;;;5032760;28;20326;-74
2021/01/10 11:51:42;;;;;;;10.43;6.90;;;6.60;1.00;;;;;;5036429;28;20245;-74
2021/01/10 11:54:12;;;;;;;11.63;7.10;;;7.00;99.90;;;;;;5040377;28;21855;-75
2021/01/10 11:56:42;;;;;;;10.43;5.70;;;7.30;28.50;;;;;;5032925;28;20327;-75
2021/01/10 11:59:11;;;;;;;8.40;6.00;;;7.70;1.00;;;;;;5025623;28;20215;-74
2021/01/10 12:01:37;;;;;;;6.70;5.57;;;7.60;1.00;;;;;;5023506;28;20323;-75
2021/01/10 12:04:05;;;;;;;7.30;5.83;;;7.70;1.00;;;;;;5044246;28;20234;-75
2021/01/10 12:06:33;;;;;;;8.33;6.17;;;7.70;1.00;;;;;;5042277;28;20269;-75
2021/01/10 12:08:59;;;;;;;8.77;5.80;;;8.50;1.00;;;;;;5019246;28;20315;-75
2021/01/10 12:11:25;;;;;;;8.53;5.30;;;8.70;81.10;;;;;;5028541;28;20197;-74
2021/01/10 12:13:52;;;;;;;9.53;5.83;;;8.70;1.00;;;;;;5035314;28;20283;-75
2021/01/10 12:16:19;;;;;;;8.10;6.20;;;8.90;1.00;;;;;;5034923;28;20252;-75
2021/01/10 12:18:47;;;;;;;7.30;5.80;;;9.50;1.00;;;;;;5021676;28;20246;-74
2021/01/10 12:21:15;;;;;;;9.67;5.30;;;9.60;1.00;;;;;;5038373;28;20726;-73
2021/01/10 12:23:42;;;;;;;7.67;5.67;;;9.80;1.00;;;;;;5017980;28;20230;-75
2021/01/10 12:26:15;;;;;;;9.50;6.67;;;10.10;1.00;;;;;;5033623;28;20213;-75
2021/01/10 12:28:46;;;;;;;10.27;6.20;;;10.10;1.00;;;;;;5025365;28;20675;-74
2021/01/10 12:31:14;;;;;;;7.23;5.50;;;9.90;1.00;;;;;;5040115;28;20203;-75
2021/01/10 12:33:41;;;;;;;8.07;5.97;;;9.90;1.00;;;;;;5020579;28;20603;-74
2021/01/10 12:36:09;;;;;;;7.93;5.27;;;9.50;1.00;;;;;;5036570;28;20213;-75
2021/01/10 12:38:37;;;;;;;8.77;6.13;;;8.40;1.00;;;;;;5019392;28;20309;-75
2021/01/10 12:41:04;;;;;;;7.27;5.20;;;8.30;1.00;;;;;;5034854;28;20208;-74
2021/01/10 12:43:31;;;;;;;7.20;5.63;;;8.70;1.00;;;;;;5032768;28;20203;-74
2021/01/10 12:45:58;;;;;;;6.40;4.67;;;9.00;1.00;;;;;;5015882;28;20534;-75
2021/01/10 12:48:24;;;;;;;6.47;4.60;;;9.50;1.00;;;;;;5033905;28;20214;-74
2021/01/10 12:50:50;;;;;;;5.27;3.87;;;9.90;1.00;;;;;;5017587;28;20205;-74
2021/01/10 12:53:17;;;;;;;6.03;3.93;;;9.40;99.90;;;;;;5022123;28;20220;-74
2021/01/10 12:55:44;;;;;;;7.33;3.83;;;9.30;99.90;;;;;;5031898;28;20222;-74
2021/01/10 12:58:12;;;;;;;5.87;4.10;;;9.50;99.90;;;;;;5025858;28;20214;-75
2021/01/10 13:00:38;;;;;;;4.47;3.40;;;9.20;99.90;;;;;;5040571;28;20204;-74
2021/01/10 13:03:05;;;;;;;6.90;3.43;;;9.50;99.90;;;;;;5037702;28;20257;-75
2021/01/10 13:05:31;;;;;;;8.63;3.33;;;9.60;99.90;;;;;;5024948;28;20203;-74
2021/01/10 13:07:59;;;;;;;7.43;3.17;;;9.70;99.90;;;;;;5042710;28;20204;-74
2021/01/10 13:10:25;;;;;;;6.60;2.93;;;9.00;99.90;;;;;;5035662;28;20253;-74